Terminal Aerodrome Forecast
Issued by NWS

Home | Current Version | Previous Version | Text Only | Print | Product List | Glossary On
Versions: 1 2 3 4 5 6 7 8 9 10 11 12 13 14 15 16 17 18 19
000
FTAK31 PANC 181627 AAA
TAFAAQ
TAF AMD
PAAQ 181627Z 1816/1912 00000KT P6SM VCFG SCT003
      TEMPO 1816/1818 4SM BR BKN003
     FM181800 35005KT P6SM SKC=

USA.gov is the U.S. government's official web portal to all federal, state and local government web resources and services.